Amunt
Inicio > meteoXarxa
Fes-te'n soci

METEOXARXA

Peníscola
Ubicació Gran Hotel
Comarca el Baix Maestrat
Altitud (msnm) 19
Posició geogràfica 40° 23' 30.48" N, 00° 24' 46.08" E
Model Davis Vantage Pro2 Plus
Presa de dades
Font de les dades Gran Hotel (Fco. Javier Pau Tomás/Jordi Maura Posas)
Estadístiques. Resum
Data Temperatura (ºC) Humitat (%) Pressió (hPa) Vent (km/h) Precipit. (mm)
Mínima Mitjana Màxima Mínima Mitjana Màxima Mínima Mitjana Màxima Predom. Mitjana Ràfega màxima Total Dies de pluja
Mínima Mitjana Màxima Mínima Mitjana Màxima
Últimes dades diàries
25-03-2017 6,9     11,3     15,8 45,0 63,5 82,0 1.009,0 1.012,5 1.016,0 50,0 0,0  
24-03-2017 7,8     11,2     14,6 48,0 63,0 78,0 1.010,0 1.011,5 1.013,0 31,0 0,0  
23-03-2017 8,0     12,9     17,8 28,0 51,0 74,0 1.006,0 1.008,5 1.011,0 29,0 0,0  
22-03-2017 10,6     14,7     18,8 39,0 61,0 83,0 1.006,0 1.009,5 1.013,0 27,0 0,0  
21-03-2017 9,2     14,2     19,2 58,0 75,0 92,0 1.011,0 1.012,5 1.014,0 18,0 0,0  
20-03-2017 9,6     14,1     18,6 64,0 78,0 92,0 1.011,0 1.012,5 1.014,0 23,0 0,0  
19-03-2017 8,5     13,2     17,8 59,0 75,0 91,0 1.013,0 1.015,5 1.018,0 23,0 0,0  
18-03-2017 5,5     11,7     17,8 45,0 65,0 85,0 1.017,0 1.019,0 1.021,0 27,0 0,0  
17-03-2017 5,8     11,3     16,8 55,0 69,0 83,0 1.020,0 1.021,5 1.023,0 35,0 0,0  
16-03-2017 7,6     13,7     19,8 52,0 69,0 86,0 1.021,0 1.022,5 1.024,0 24,0 0,0  
15-03-2017 8,7     14,6     20,5 53,0 68,5 84,0 1.024,0 1.025,5 1.027,0 16,0 0,0  
14-03-2017 10,8     16,8     22,8 45,0 64,5 84,0 1.025,0 1.026,5 1.028,0 19,0 0,0  
13-03-2017 9,2     12,9     16,6 63,0 75,5 88,0 1.012,0 1.018,5 1.025,0 39,0 4,4  
12-03-2017 11,1     14,8     18,5 50,0 71,0 92,0 1.011,0 1.013,0 1.015,0 29,0 0,0  
11-03-2017 8,6     14,2     19,7 65,0 78,0 91,0 1.014,0 1.016,0 1.018,0 15,0 0,0  
10-03-2017 11,2     15,9     20,6 43,0 67,5 92,0 1.017,0 1.018,5 1.020,0 15,0 0,0  
09-03-2017 10,6     16,2     21,8 40,0 63,0 86,0 1.020,0 1.022,5 1.025,0 24,0 0,0  
08-03-2017 14,8     17,5     20,2 47,0 65,5 84,0 1.019,0 1.022,0 1.025,0 32,0 0,0  
07-03-2017 14,0     19,4     24,9 31,0 39,5 48,0 1.017,0 1.019,0 1.021,0 47,0 0,0  
06-03-2017 12,3     19,1     25,8 27,0 54,0 81,0 1.015,0 1.017,5 1.020,0 42,0 0,0  
05-03-2017 7,7     12,9     18,1 47,0 61,5 76,0 1.011,0 1.014,0 1.017,0 26,0 0,0  
04-03-2017 8,2     13,2     18,3 27,0 57,0 87,0 995,0 1.003,0 1.011,0 42,0 0,4  
03-03-2017 8,3     11,5     14,7 76,0 84,5 93,0 993,0 1.004,5 1.016,0 45,0 4,4  
02-03-2017 7,3     12,4     17,6 66,0 78,5 91,0 1.016,0 1.017,5 1.019,0 16,0 0,0  
01-03-2017 9,2     12,2     15,2 54,0 71,5 89,0 1.016,0 1.017,5 1.019,0 34,0 0,0  
28-02-2017 9,6     13,8     17,9 45,0 63,0 81,0 1.008,0 1.012,0 1.016,0 31,0 0,0  
27-02-2017 8,8     12,3     15,8 53,0 73,0 93,0 1.010,0 1.013,5 1.017,0 27,0 0,0  
26-02-2017 7,4     11,3     15,3 72,0 82,0 92,0 1.017,0 1.019,0 1.021,0 24,0 0,0  
25-02-2017 6,8     11,2     15,7 46,0 66,0 86,0 1.016,0 1.018,5 1.021,0 19,0 0,0  
24-02-2017 10,6     13,1     15,6 61,0 77,0 93,0 1.010,0 1.013,0 1.016,0 24,0 4,0  
23-02-2017 9,8     13,2     16,6 66,0 77,5 89,0 1.011,0 1.015,0 1.019,0 27,0 0,0  
22-02-2017 7,6     11,3     15,1 59,0 72,0 85,0 1.019,0 1.020,5 1.022,0 23,0 0,0  
Dades del mes en curs (actualitzades fins l'últim dia disponible)
03/2017 5,5 9,3 14,8 14,1 14,6 18,9 25,8 27,0 66,8 93,0 993,0 1.016,0 1.028,0   50,0 9,2  
Últimes dades mensuals
02/2017 5,1 8,8 13,2 12,7 13,6 16,6 22,9 45,5 72,6 89,0 1.008,0 1.017,4 1.030,5 68,0 10,6 4
01/2017 1,2 6,1 11,1 10,1 10,3 14,0 18,0 37,5 65,3 93,0 1.011,0 1.018,8 1.028,0 68,0 43,2 7
12/2016 1,9 7,8 15,3 12,1 10,3 16,4 19,6 60,5 77,7 92,0 1.014,0 1.025,8 1.034,5 52,0 50,2 7
11/2016 6,8 10,8 16,2 14,9 13,6 18,9 25,8 42,0 65,0 88,0 1.001,0 1.013,7 1.029,0 52,0 40,6 10
10/2016 12,3 16,3 20,3 20,2 15,9 24,1 28,9 59,5 75,9 89,0 999,5 1.015,1 1.028,5 37,0 58,6 10
09/2016 14,1 19,4 23,6 23,4 25,4 28,0 32,2 42,0 60,1 78,0 1.009,5 1.016,4 1.026,0 55,0 15,4 5
08/2016 18,1 21,5 24,9 25,1 25,4 28,6 30,8 43,0 64,8 79,0 1.009,0 1.016,8 1.022,5 42,0 1,8 2
07/2016 18,2 21,3 24,1 25,0 25,3 28,6 32,4 43,5 64,6 79,5 1.012,0 1.015,7 1.020,0 52,0 0,6 1
06/2016 14,6 18,3 22,3 22,0 22,1 25,7 31,3 43,0 67,4 82,0 1.001,0 1.014,4 1.022,0 44,0 1,4 5
05/2016 10,6 14,7 19,6 18,2 14,1 21,7 28,1 42,5 67,8 85,5 1.003,5 1.012,6 1.021,0 40,0 27,8 7
04/2016 7,9 11,5 14,4 15,4 14,9 19,2 23,1 38,0 67,0 86,5 1.005,0 1.012,2 1.018,5 55,0 24,8 8
03/2016 5,9 9,4 12,7 13,5 13,0 17,5 24,3 35,5 61,2 88,5 1.001,5 1.013,1 1.020,5 55,0 45,2 5
02/2016 2,9 8,3 15,7 12,8 12,2 17,4 25,3 36,0 60,2 83,0 991,5 1.015,7 1.034,0 63,0 7,0 5
Dades de l'any en curs (actualitzades fins l'últim dia disponible)
2017 1,2 7,9 14,8 12,1 10,3 16,3 25,8 1,0 68,2 96,0 993,0 1.017,5 1.032,0   68,0 63,0  
Últimes dades anuals